sensor_id;sensor_type;location;lat;lon;timestamp;P1;durP1;ratioP1;P2;durP2;ratioP2
19691;SDS011;42748;50.016;19.890;2022-12-18T00:01:13;99.13;;;28.00;;
19691;SDS011;42748;50.016;19.890;2022-12-18T00:03:49;114.50;;;29.97;;
19691;SDS011;42748;50.016;19.890;2022-12-18T00:06:17;119.83;;;30.07;;
19691;SDS011;42748;50.016;19.890;2022-12-18T00:08:45;115.13;;;29.90;;
19691;SDS011;42748;50.016;19.890;2022-12-18T00:11:16;105.93;;;30.67;;
19691;SDS011;42748;50.016;19.890;2022-12-18T00:13:45;112.67;;;29.30;;
19691;SDS011;42748;50.016;19.890;2022-12-18T00:16:13;111.87;;;29.23;;
19691;SDS011;42748;50.016;19.890;2022-12-18T00:18:49;106.87;;;28.77;;
19691;SDS011;42748;50.016;19.890;2022-12-18T00:21:18;108.27;;;28.67;;
19691;SDS011;42748;50.016;19.890;2022-12-18T00:23:47;116.57;;;31.03;;
19691;SDS011;42748;50.016;19.890;2022-12-18T00:26:23;117.93;;;30.17;;
19691;SDS011;42748;50.016;19.890;2022-12-18T00:28:58;102.20;;;25.93;;
19691;SDS011;42748;50.016;19.890;2022-12-18T00:31:31;108.87;;;29.60;;
19691;SDS011;42748;50.016;19.890;2022-12-18T00:33:59;101.33;;;28.07;;
19691;SDS011;42748;50.016;19.890;2022-12-18T00:36:29;106.27;;;27.83;;
19691;SDS011;42748;50.016;19.890;2022-12-18T00:38:58;100.63;;;26.80;;
19691;SDS011;42748;50.016;19.890;2022-12-18T00:41:27;114.03;;;29.80;;
19691;SDS011;42748;50.016;19.890;2022-12-18T00:44:13;102.90;;;26.93;;
19691;SDS011;42748;50.016;19.890;2022-12-18T00:46:42;106.73;;;29.27;;
19691;SDS011;42748;50.016;19.890;2022-12-18T00:49:10;106.40;;;29.60;;
19691;SDS011;42748;50.016;19.890;2022-12-18T00:51:39;108.60;;;30.63;;
19691;SDS011;42748;50.016;19.890;2022-12-18T00:54:06;86.90;;;22.57;;
19691;SDS011;42748;50.016;19.890;2022-12-18T00:56:34;103.80;;;28.70;;
19691;SDS011;42748;50.016;19.890;2022-12-18T00:59:14;101.53;;;27.60;;
19691;SDS011;42748;50.016;19.890;2022-12-18T01:01:42;105.73;;;28.53;;
19691;SDS011;42748;50.016;19.890;2022-12-18T01:04:09;105.47;;;27.53;;
19691;SDS011;42748;50.016;19.890;2022-12-18T01:06:36;113.33;;;29.57;;
19691;SDS011;42748;50.016;19.890;2022-12-18T01:09:03;104.70;;;29.57;;
19691;SDS011;42748;50.016;19.890;2022-12-18T01:11:30;109.17;;;30.67;;
19691;SDS011;42748;50.016;19.890;2022-12-18T01:13:58;112.80;;;30.47;;
19691;SDS011;42748;50.016;19.890;2022-12-18T01:16:25;115.67;;;30.70;;
19691;SDS011;42748;50.016;19.890;2022-12-18T01:18:53;99.40;;;27.43;;
19691;SDS011;42748;50.016;19.890;2022-12-18T01:21:21;102.43;;;30.17;;
19691;SDS011;42748;50.016;19.890;2022-12-18T01:23:55;113.60;;;29.97;;
19691;SDS011;42748;50.016;19.890;2022-12-18T01:26:23;93.63;;;28.87;;
19691;SDS011;42748;50.016;19.890;2022-12-18T01:28:51;91.47;;;25.40;;
19691;SDS011;42748;50.016;19.890;2022-12-18T01:33:51;102.60;;;28.63;;
19691;SDS011;42748;50.016;19.890;2022-12-18T01:36:23;103.93;;;28.67;;
19691;SDS011;42748;50.016;19.890;2022-12-18T01:38:52;100.93;;;24.97;;
19691;SDS011;42748;50.016;19.890;2022-12-18T01:41:24;109.30;;;29.27;;
19691;SDS011;42748;50.016;19.890;2022-12-18T01:43:57;95.43;;;27.70;;
19691;SDS011;42748;50.016;19.890;2022-12-18T01:46:24;96.93;;;27.70;;
19691;SDS011;42748;50.016;19.890;2022-12-18T01:48:59;104.13;;;29.97;;
19691;SDS011;42748;50.016;19.890;2022-12-18T01:51:28;100.40;;;28.97;;
19691;SDS011;42748;50.016;19.890;2022-12-18T01:53:57;95.07;;;28.03;;
19691;SDS011;42748;50.016;19.890;2022-12-18T01:56:25;107.97;;;30.17;;
19691;SDS011;42748;50.016;19.890;2022-12-18T01:58:54;97.97;;;27.97;;
19691;SDS011;42748;50.016;19.890;2022-12-18T02:01:22;97.27;;;28.50;;
19691;SDS011;42748;50.016;19.890;2022-12-18T02:03:50;103.53;;;30.63;;
19691;SDS011;42748;50.016;19.890;2022-12-18T02:06:24;106.33;;;29.53;;
19691;SDS011;42748;50.016;19.890;2022-12-18T02:28:30;103.53;;;29.50;;
19691;SDS011;42748;50.016;19.890;2022-12-18T02:31:05;104.27;;;28.33;;
19691;SDS011;42748;50.016;19.890;2022-12-18T02:33:37;99.63;;;28.07;;
19691;SDS011;42748;50.016;19.890;2022-12-18T02:36:07;110.47;;;29.50;;
19691;SDS011;42748;50.016;19.890;2022-12-18T02:38:37;99.67;;;30.63;;
19691;SDS011;42748;50.016;19.890;2022-12-18T02:41:11;98.80;;;29.13;;
19691;SDS011;42748;50.016;19.890;2022-12-18T02:43:40;102.00;;;28.93;;
19691;SDS011;42748;50.016;19.890;2022-12-18T02:46:23;96.40;;;28.33;;
19691;SDS011;42748;50.016;19.890;2022-12-18T02:48:57;106.27;;;27.93;;
19691;SDS011;42748;50.016;19.890;2022-12-18T02:54:36;105.70;;;28.93;;
19691;SDS011;42748;50.016;19.890;2022-12-18T02:57:15;98.03;;;27.73;;
19691;SDS011;42748;50.016;19.890;2022-12-18T02:59:56;108.40;;;28.70;;
19691;SDS011;42748;50.016;19.890;2022-12-18T03:02:37;90.73;;;26.67;;
19691;SDS011;42748;50.016;19.890;2022-12-18T03:05:21;99.40;;;27.17;;
19691;SDS011;42748;50.016;19.890;2022-12-18T03:08:04;90.43;;;28.33;;
19691;SDS011;42748;50.016;19.890;2022-12-18T03:10:42;107.73;;;27.13;;
19691;SDS011;42748;50.016;19.890;2022-12-18T03:13:16;99.77;;;27.43;;
19691;SDS011;42748;50.016;19.890;2022-12-18T03:15:50;110.53;;;28.70;;
19691;SDS011;42748;50.016;19.890;2022-12-18T03:18:22;99.50;;;28.50;;
19691;SDS011;42748;50.016;19.890;2022-12-18T03:20:53;104.47;;;28.93;;
19691;SDS011;42748;50.016;19.890;2022-12-18T03:23:25;105.30;;;27.90;;
19691;SDS011;42748;50.016;19.890;2022-12-18T03:25:59;96.83;;;28.47;;
19691;SDS011;42748;50.016;19.890;2022-12-18T03:28:38;97.43;;;28.93;;
19691;SDS011;42748;50.016;19.890;2022-12-18T03:31:11;90.37;;;27.37;;
19691;SDS011;42748;50.016;19.890;2022-12-18T03:33:42;91.87;;;27.70;;
19691;SDS011;42748;50.016;19.890;2022-12-18T03:36:30;94.90;;;26.67;;
19691;SDS011;42748;50.016;19.890;2022-12-18T03:38:59;92.17;;;26.70;;
19691;SDS011;42748;50.016;19.890;2022-12-18T03:41:34;96.00;;;28.23;;
19691;SDS011;42748;50.016;19.890;2022-12-18T03:47:28;93.17;;;26.50;;
19691;SDS011;42748;50.016;19.890;2022-12-18T03:55:38;91.60;;;27.03;;
19691;SDS011;42748;50.016;19.890;2022-12-18T03:58:06;91.30;;;26.23;;
19691;SDS011;42748;50.016;19.890;2022-12-18T04:00:49;102.93;;;26.90;;
19691;SDS011;42748;50.016;19.890;2022-12-18T04:03:19;89.47;;;27.33;;
19691;SDS011;42748;50.016;19.890;2022-12-18T04:05:52;88.13;;;25.90;;
19691;SDS011;42748;50.016;19.890;2022-12-18T04:08:21;96.17;;;27.40;;
19691;SDS011;42748;50.016;19.890;2022-12-18T04:10:59;90.13;;;26.20;;
19691;SDS011;42748;50.016;19.890;2022-12-18T04:13:31;92.63;;;26.97;;
19691;SDS011;42748;50.016;19.890;2022-12-18T04:16:04;87.57;;;25.53;;
19691;SDS011;42748;50.016;19.890;2022-12-18T04:18:32;91.50;;;25.73;;
19691;SDS011;42748;50.016;19.890;2022-12-18T04:21:00;90.27;;;24.83;;
19691;SDS011;42748;50.016;19.890;2022-12-18T04:23:28;102.13;;;26.73;;
19691;SDS011;42748;50.016;19.890;2022-12-18T04:25:57;96.27;;;26.23;;
19691;SDS011;42748;50.016;19.890;2022-12-18T04:28:43;86.60;;;25.03;;
19691;SDS011;42748;50.016;19.890;2022-12-18T04:31:11;96.80;;;26.00;;
19691;SDS011;42748;50.016;19.890;2022-12-18T04:33:38;89.80;;;25.03;;
19691;SDS011;42748;50.016;19.890;2022-12-18T04:36:07;93.33;;;25.53;;
19691;SDS011;42748;50.016;19.890;2022-12-18T04:38:33;83.07;;;23.07;;
19691;SDS011;42748;50.016;19.890;2022-12-18T04:41:06;99.83;;;26.43;;
19691;SDS011;42748;50.016;19.890;2022-12-18T04:43:35;87.27;;;25.77;;
19691;SDS011;42748;50.016;19.890;2022-12-18T04:46:06;90.43;;;26.20;;
19691;SDS011;42748;50.016;19.890;2022-12-18T04:48:34;79.90;;;22.90;;
19691;SDS011;42748;50.016;19.890;2022-12-18T04:51:02;82.07;;;23.90;;
19691;SDS011;42748;50.016;19.890;2022-12-18T04:53:31;90.90;;;25.63;;
19691;SDS011;42748;50.016;19.890;2022-12-18T04:56:08;90.97;;;27.03;;
19691;SDS011;42748;50.016;19.890;2022-12-18T04:58:37;94.63;;;26.73;;
19691;SDS011;42748;50.016;19.890;2022-12-18T05:01:05;86.37;;;25.70;;
19691;SDS011;42748;50.016;19.890;2022-12-18T05:03:34;94.83;;;27.17;;
19691;SDS011;42748;50.016;19.890;2022-12-18T05:06:02;93.87;;;25.43;;
19691;SDS011;42748;50.016;19.890;2022-12-18T05:08:30;95.17;;;27.93;;
19691;SDS011;42748;50.016;19.890;2022-12-18T05:11:07;92.17;;;26.40;;
19691;SDS011;42748;50.016;19.890;2022-12-18T05:13:36;88.20;;;26.57;;
19691;SDS011;42748;50.016;19.890;2022-12-18T05:16:05;92.47;;;25.33;;
19691;SDS011;42748;50.016;19.890;2022-12-18T05:18:33;92.80;;;24.13;;
19691;SDS011;42748;50.016;19.890;2022-12-18T05:21:00;95.60;;;26.77;;
19691;SDS011;42748;50.016;19.890;2022-12-18T05:23:28;87.93;;;26.63;;
19691;SDS011;42748;50.016;19.890;2022-12-18T05:25:58;94.00;;;27.00;;
19691;SDS011;42748;50.016;19.890;2022-12-18T05:28:27;87.03;;;25.40;;
19691;SDS011;42748;50.016;19.890;2022-12-18T05:30:56;90.60;;;26.07;;
19691;SDS011;42748;50.016;19.890;2022-12-18T05:33:26;89.13;;;26.77;;
19691;SDS011;42748;50.016;19.890;2022-12-18T05:35:56;93.87;;;26.57;;
19691;SDS011;42748;50.016;19.890;2022-12-18T05:38:25;82.43;;;26.20;;
19691;SDS011;42748;50.016;19.890;2022-12-18T05:40:53;87.80;;;25.53;;
19691;SDS011;42748;50.016;19.890;2022-12-18T05:43:20;88.07;;;25.93;;
19691;SDS011;42748;50.016;19.890;2022-12-18T05:45:48;93.13;;;26.70;;
19691;SDS011;42748;50.016;19.890;2022-12-18T05:48:16;96.13;;;27.77;;
19691;SDS011;42748;50.016;19.890;2022-12-18T05:50:44;103.83;;;27.57;;
19691;SDS011;42748;50.016;19.890;2022-12-18T05:53:13;96.07;;;26.27;;
19691;SDS011;42748;50.016;19.890;2022-12-18T05:55:41;95.33;;;26.27;;
19691;SDS011;42748;50.016;19.890;2022-12-18T05:58:10;87.27;;;25.90;;
19691;SDS011;42748;50.016;19.890;2022-12-18T06:00:39;89.17;;;25.70;;
19691;SDS011;42748;50.016;19.890;2022-12-18T06:03:09;80.20;;;26.27;;
19691;SDS011;42748;50.016;19.890;2022-12-18T06:05:37;89.00;;;26.27;;
19691;SDS011;42748;50.016;19.890;2022-12-18T06:08:06;87.70;;;26.17;;
19691;SDS011;42748;50.016;19.890;2022-12-18T06:10:33;98.30;;;26.43;;
19691;SDS011;42748;50.016;19.890;2022-12-18T06:13:00;95.33;;;27.07;;
19691;SDS011;42748;50.016;19.890;2022-12-18T06:15:27;100.87;;;26.73;;
19691;SDS011;42748;50.016;19.890;2022-12-18T06:17:54;92.03;;;27.40;;
19691;SDS011;42748;50.016;19.890;2022-12-18T06:20:22;93.57;;;27.40;;
19691;SDS011;42748;50.016;19.890;2022-12-18T06:22:51;99.73;;;27.50;;
19691;SDS011;42748;50.016;19.890;2022-12-18T06:25:18;96.80;;;27.43;;
19691;SDS011;42748;50.016;19.890;2022-12-18T06:27:47;99.30;;;26.27;;
19691;SDS011;42748;50.016;19.890;2022-12-18T06:30:14;100.00;;;27.10;;
19691;SDS011;42748;50.016;19.890;2022-12-18T06:32:42;95.43;;;26.27;;
19691;SDS011;42748;50.016;19.890;2022-12-18T06:35:09;96.43;;;27.27;;
19691;SDS011;42748;50.016;19.890;2022-12-18T06:37:36;100.03;;;27.83;;
19691;SDS011;42748;50.016;19.890;2022-12-18T06:40:03;96.73;;;27.77;;
19691;SDS011;42748;50.016;19.890;2022-12-18T06:42:31;97.17;;;27.47;;
19691;SDS011;42748;50.016;19.890;2022-12-18T06:44:58;96.53;;;27.20;;
19691;SDS011;42748;50.016;19.890;2022-12-18T06:47:25;99.33;;;27.40;;
19691;SDS011;42748;50.016;19.890;2022-12-18T06:49:52;101.43;;;26.90;;
19691;SDS011;42748;50.016;19.890;2022-12-18T06:52:19;101.90;;;28.33;;
19691;SDS011;42748;50.016;19.890;2022-12-18T06:54:46;93.40;;;28.83;;
19691;SDS011;42748;50.016;19.890;2022-12-18T06:57:13;107.03;;;28.33;;
19691;SDS011;42748;50.016;19.890;2022-12-18T06:59:40;106.23;;;27.50;;
19691;SDS011;42748;50.016;19.890;2022-12-18T07:02:10;95.27;;;26.93;;
19691;SDS011;42748;50.016;19.890;2022-12-18T07:04:38;102.33;;;27.17;;
19691;SDS011;42748;50.016;19.890;2022-12-18T07:07:05;106.27;;;28.00;;
19691;SDS011;42748;50.016;19.890;2022-12-18T07:09:32;103.63;;;27.43;;
19691;SDS011;42748;50.016;19.890;2022-12-18T07:11:59;106.80;;;28.70;;
19691;SDS011;42748;50.016;19.890;2022-12-18T07:14:26;103.53;;;27.93;;
19691;SDS011;42748;50.016;19.890;2022-12-18T07:16:53;99.17;;;27.80;;
19691;SDS011;42748;50.016;19.890;2022-12-18T07:19:20;100.67;;;27.73;;
19691;SDS011;42748;50.016;19.890;2022-12-18T07:21:49;98.67;;;28.33;;
19691;SDS011;42748;50.016;19.890;2022-12-18T07:24:17;102.87;;;27.00;;
19691;SDS011;42748;50.016;19.890;2022-12-18T07:26:46;98.70;;;28.73;;
19691;SDS011;42748;50.016;19.890;2022-12-18T07:29:14;104.13;;;29.07;;
19691;SDS011;42748;50.016;19.890;2022-12-18T07:31:41;92.90;;;28.03;;
19691;SDS011;42748;50.016;19.890;2022-12-18T07:34:12;103.83;;;28.20;;
19691;SDS011;42748;50.016;19.890;2022-12-18T07:36:41;106.70;;;28.80;;
19691;SDS011;42748;50.016;19.890;2022-12-18T07:39:10;101.40;;;29.67;;
19691;SDS011;42748;50.016;19.890;2022-12-18T07:41:37;101.17;;;27.93;;
19691;SDS011;42748;50.016;19.890;2022-12-18T07:44:14;94.40;;;25.90;;
19691;SDS011;42748;50.016;19.890;2022-12-18T07:46:41;103.57;;;27.63;;
19691;SDS011;42748;50.016;19.890;2022-12-18T07:49:08;97.97;;;27.67;;
19691;SDS011;42748;50.016;19.890;2022-12-18T07:51:35;103.83;;;28.37;;
19691;SDS011;42748;50.016;19.890;2022-12-18T07:54:02;96.97;;;28.63;;
19691;SDS011;42748;50.016;19.890;2022-12-18T07:56:29;105.27;;;28.60;;
19691;SDS011;42748;50.016;19.890;2022-12-18T07:58:57;98.60;;;29.30;;
19691;SDS011;42748;50.016;19.890;2022-12-18T08:01:26;111.40;;;30.33;;
19691;SDS011;42748;50.016;19.890;2022-12-18T08:03:54;108.03;;;28.17;;
19691;SDS011;42748;50.016;19.890;2022-12-18T08:06:21;100.87;;;27.70;;
19691;SDS011;42748;50.016;19.890;2022-12-18T08:08:53;96.63;;;28.10;;
19691;SDS011;42748;50.016;19.890;2022-12-18T08:11:21;104.57;;;27.87;;
19691;SDS011;42748;50.016;19.890;2022-12-18T08:13:50;98.00;;;28.73;;
19691;SDS011;42748;50.016;19.890;2022-12-18T08:16:18;93.50;;;27.70;;
19691;SDS011;42748;50.016;19.890;2022-12-18T08:18:46;89.50;;;25.93;;
19691;SDS011;42748;50.016;19.890;2022-12-18T08:21:24;98.47;;;29.97;;
19691;SDS011;42748;50.016;19.890;2022-12-18T08:23:53;97.97;;;29.03;;
19691;SDS011;42748;50.016;19.890;2022-12-18T08:26:21;106.73;;;29.33;;
19691;SDS011;42748;50.016;19.890;2022-12-18T08:28:50;100.83;;;28.33;;
19691;SDS011;42748;50.016;19.890;2022-12-18T08:31:18;101.80;;;30.00;;
19691;SDS011;42748;50.016;19.890;2022-12-18T08:33:47;93.63;;;28.40;;
19691;SDS011;42748;50.016;19.890;2022-12-18T08:36:16;96.47;;;29.63;;
19691;SDS011;42748;50.016;19.890;2022-12-18T08:38:43;103.57;;;30.37;;
19691;SDS011;42748;50.016;19.890;2022-12-18T08:41:11;90.97;;;29.00;;
19691;SDS011;42748;50.016;19.890;2022-12-18T08:43:40;98.13;;;30.73;;
19691;SDS011;42748;50.016;19.890;2022-12-18T08:46:26;97.27;;;29.17;;
19691;SDS011;42748;50.016;19.890;2022-12-18T08:48:57;95.93;;;29.87;;
19691;SDS011;42748;50.016;19.890;2022-12-18T08:51:24;104.97;;;29.90;;
19691;SDS011;42748;50.016;19.890;2022-12-18T08:53:52;96.00;;;30.60;;
19691;SDS011;42748;50.016;19.890;2022-12-18T08:56:19;101.37;;;30.40;;
19691;SDS011;42748;50.016;19.890;2022-12-18T08:58:46;102.17;;;30.07;;
19691;SDS011;42748;50.016;19.890;2022-12-18T09:01:13;100.43;;;30.83;;
19691;SDS011;42748;50.016;19.890;2022-12-18T09:03:40;98.23;;;30.77;;
19691;SDS011;42748;50.016;19.890;2022-12-18T09:06:08;98.63;;;29.33;;
19691;SDS011;42748;50.016;19.890;2022-12-18T09:08:35;96.43;;;29.40;;
19691;SDS011;42748;50.016;19.890;2022-12-18T09:11:03;96.80;;;29.83;;
19691;SDS011;42748;50.016;19.890;2022-12-18T09:13:30;97.00;;;31.03;;
19691;SDS011;42748;50.016;19.890;2022-12-18T09:15:57;100.73;;;30.53;;
19691;SDS011;42748;50.016;19.890;2022-12-18T09:18:25;108.17;;;31.50;;
19691;SDS011;42748;50.016;19.890;2022-12-18T09:20:52;109.43;;;32.63;;
19691;SDS011;42748;50.016;19.890;2022-12-18T09:23:20;102.83;;;32.57;;
19691;SDS011;42748;50.016;19.890;2022-12-18T09:25:47;106.60;;;31.73;;
19691;SDS011;42748;50.016;19.890;2022-12-18T09:28:15;108.30;;;31.83;;
19691;SDS011;42748;50.016;19.890;2022-12-18T09:30:45;105.03;;;31.57;;
19691;SDS011;42748;50.016;19.890;2022-12-18T09:33:15;101.20;;;31.37;;
19691;SDS011;42748;50.016;19.890;2022-12-18T09:35:43;107.50;;;31.53;;
19691;SDS011;42748;50.016;19.890;2022-12-18T09:38:12;97.50;;;30.87;;
19691;SDS011;42748;50.016;19.890;2022-12-18T09:43:17;104.23;;;33.30;;
19691;SDS011;42748;50.016;19.890;2022-12-18T09:46:05;98.90;;;31.63;;
19691;SDS011;42748;50.016;19.890;2022-12-18T09:48:35;101.90;;;29.67;;
19691;SDS011;42748;50.016;19.890;2022-12-18T09:51:13;91.37;;;28.97;;
19691;SDS011;42748;50.016;19.890;2022-12-18T09:53:44;108.27;;;31.23;;
19691;SDS011;42748;50.016;19.890;2022-12-18T09:56:16;90.67;;;30.80;;
19691;SDS011;42748;50.016;19.890;2022-12-18T09:58:51;102.63;;;32.00;;
19691;SDS011;42748;50.016;19.890;2022-12-18T10:01:23;100.00;;;30.57;;
19691;SDS011;42748;50.016;19.890;2022-12-18T10:03:58;94.53;;;29.03;;
19691;SDS011;42748;50.016;19.890;2022-12-18T10:06:36;98.33;;;28.80;;
19691;SDS011;42748;50.016;19.890;2022-12-18T10:12:21;87.63;;;29.30;;
19691;SDS011;42748;50.016;19.890;2022-12-18T10:15:07;96.07;;;30.13;;
19691;SDS011;42748;50.016;19.890;2022-12-18T10:17:42;88.27;;;29.50;;
19691;SDS011;42748;50.016;19.890;2022-12-18T10:20:16;95.53;;;29.50;;
19691;SDS011;42748;50.016;19.890;2022-12-18T10:25:27;81.67;;;27.87;;
19691;SDS011;42748;50.016;19.890;2022-12-18T10:28:07;88.03;;;29.60;;
19691;SDS011;42748;50.016;19.890;2022-12-18T10:30:40;84.90;;;28.93;;
19691;SDS011;42748;50.016;19.890;2022-12-18T10:33:12;87.37;;;27.83;;
19691;SDS011;42748;50.016;19.890;2022-12-18T10:35:42;85.67;;;28.53;;
19691;SDS011;42748;50.016;19.890;2022-12-18T10:43:36;93.17;;;30.40;;
19691;SDS011;42748;50.016;19.890;2022-12-18T10:51:24;89.57;;;29.67;;
19691;SDS011;42748;50.016;19.890;2022-12-18T10:53:53;87.60;;;29.50;;
19691;SDS011;42748;50.016;19.890;2022-12-18T10:56:24;85.30;;;28.83;;
19691;SDS011;42748;50.016;19.890;2022-12-18T10:59:27;91.57;;;29.43;;
19691;SDS011;42748;50.016;19.890;2022-12-18T11:01:54;91.73;;;30.33;;
19691;SDS011;42748;50.016;19.890;2022-12-18T11:04:27;91.23;;;29.70;;
19691;SDS011;42748;50.016;19.890;2022-12-18T11:09:28;80.87;;;26.80;;
19691;SDS011;42748;50.016;19.890;2022-12-18T11:12:18;85.43;;;28.70;;
19691;SDS011;42748;50.016;19.890;2022-12-18T11:14:50;86.37;;;27.67;;
19691;SDS011;42748;50.016;19.890;2022-12-18T11:17:21;79.30;;;28.43;;
19691;SDS011;42748;50.016;19.890;2022-12-18T11:20:02;81.23;;;26.63;;
19691;SDS011;42748;50.016;19.890;2022-12-18T11:22:58;80.37;;;27.57;;
19691;SDS011;42748;50.016;19.890;2022-12-18T11:25:31;75.10;;;25.87;;
19691;SDS011;42748;50.016;19.890;2022-12-18T11:28:03;72.43;;;25.57;;
19691;SDS011;42748;50.016;19.890;2022-12-18T11:30:49;80.40;;;26.43;;
19691;SDS011;42748;50.016;19.890;2022-12-18T11:33:29;82.57;;;25.97;;
19691;SDS011;42748;50.016;19.890;2022-12-18T11:35:57;82.57;;;27.07;;
19691;SDS011;42748;50.016;19.890;2022-12-18T11:38:31;70.17;;;23.83;;
19691;SDS011;42748;50.016;19.890;2022-12-18T11:43:58;66.73;;;22.17;;
19691;SDS011;42748;50.016;19.890;2022-12-18T11:51:53;69.20;;;24.03;;
19691;SDS011;42748;50.016;19.890;2022-12-18T11:54:22;68.67;;;24.33;;
19691;SDS011;42748;50.016;19.890;2022-12-18T11:56:51;66.07;;;23.53;;
19691;SDS011;42748;50.016;19.890;2022-12-18T12:05:01;57.87;;;20.20;;
19691;SDS011;42748;50.016;19.890;2022-12-18T12:16:00;62.60;;;19.90;;
19691;SDS011;42748;50.016;19.890;2022-12-18T12:21:34;56.20;;;18.70;;
19691;SDS011;42748;50.016;19.890;2022-12-18T12:27:10;56.43;;;20.13;;
19691;SDS011;42748;50.016;19.890;2022-12-18T12:40:44;64.87;;;20.23;;
19691;SDS011;42748;50.016;19.890;2022-12-18T12:43:43;57.23;;;19.57;;
19691;SDS011;42748;50.016;19.890;2022-12-18T12:46:17;59.73;;;19.27;;
19691;SDS011;42748;50.016;19.890;2022-12-18T12:48:49;58.13;;;19.37;;
19691;SDS011;42748;50.016;19.890;2022-12-18T12:51:25;56.83;;;19.23;;
19691;SDS011;42748;50.016;19.890;2022-12-18T12:53:56;60.17;;;20.07;;
19691;SDS011;42748;50.016;19.890;2022-12-18T12:56:27;58.13;;;20.10;;
19691;SDS011;42748;50.016;19.890;2022-12-18T13:01:58;59.40;;;19.63;;
19691;SDS011;42748;50.016;19.890;2022-12-18T13:09:32;52.67;;;18.93;;
19691;SDS011;42748;50.016;19.890;2022-12-18T13:12:04;54.73;;;18.33;;
19691;SDS011;42748;50.016;19.890;2022-12-18T13:15:13;57.50;;;18.30;;
19691;SDS011;42748;50.016;19.890;2022-12-18T13:18:16;53.23;;;17.63;;
19691;SDS011;42748;50.016;19.890;2022-12-18T13:20:45;55.37;;;19.20;;
19691;SDS011;42748;50.016;19.890;2022-12-18T13:25:51;60.83;;;19.27;;
19691;SDS011;42748;50.016;19.890;2022-12-18T13:36:54;60.87;;;20.90;;
19691;SDS011;42748;50.016;19.890;2022-12-18T13:39:23;66.47;;;19.70;;
19691;SDS011;42748;50.016;19.890;2022-12-18T13:44:34;61.93;;;20.53;;
19691;SDS011;42748;50.016;19.890;2022-12-18T13:47:26;59.13;;;19.87;;
19691;SDS011;42748;50.016;19.890;2022-12-18T13:49:58;60.53;;;19.87;;
19691;SDS011;42748;50.016;19.890;2022-12-18T13:52:28;63.33;;;20.87;;
19691;SDS011;42748;50.016;19.890;2022-12-18T13:55:04;70.87;;;22.77;;
19691;SDS011;42748;50.016;19.890;2022-12-18T13:57:41;57.93;;;19.90;;
19691;SDS011;42748;50.016;19.890;2022-12-18T14:00:27;64.23;;;21.27;;
19691;SDS011;42748;50.016;19.890;2022-12-18T14:02:56;61.80;;;20.63;;
19691;SDS011;42748;50.016;19.890;2022-12-18T14:05:31;68.83;;;21.37;;
19691;SDS011;42748;50.016;19.890;2022-12-18T14:08:08;64.90;;;21.27;;
19691;SDS011;42748;50.016;19.890;2022-12-18T14:10:43;61.40;;;20.23;;
19691;SDS011;42748;50.016;19.890;2022-12-18T14:13:34;61.70;;;19.53;;
19691;SDS011;42748;50.016;19.890;2022-12-18T14:16:04;57.07;;;18.40;;
19691;SDS011;42748;50.016;19.890;2022-12-18T14:26:47;63.47;;;20.20;;
19691;SDS011;42748;50.016;19.890;2022-12-18T14:32:03;61.50;;;20.80;;
19691;SDS011;42748;50.016;19.890;2022-12-18T14:34:51;69.70;;;20.93;;
19691;SDS011;42748;50.016;19.890;2022-12-18T14:37:22;70.90;;;22.97;;
19691;SDS011;42748;50.016;19.890;2022-12-18T14:39:54;72.90;;;22.30;;
19691;SDS011;42748;50.016;19.890;2022-12-18T14:42:32;80.77;;;24.20;;
19691;SDS011;42748;50.016;19.890;2022-12-18T14:48:08;72.93;;;23.43;;
19691;SDS011;42748;50.016;19.890;2022-12-18T14:50:59;76.67;;;24.50;;
19691;SDS011;42748;50.016;19.890;2022-12-18T14:53:40;84.63;;;25.80;;
19691;SDS011;42748;50.016;19.890;2022-12-18T14:56:32;69.50;;;21.60;;
19691;SDS011;42748;50.016;19.890;2022-12-18T14:59:03;79.63;;;27.23;;
19691;SDS011;42748;50.016;19.890;2022-12-18T15:02:01;78.27;;;24.67;;
19691;SDS011;42748;50.016;19.890;2022-12-18T15:04:42;86.93;;;26.60;;
19691;SDS011;42748;50.016;19.890;2022-12-18T15:09:38;92.07;;;27.47;;
19691;SDS011;42748;50.016;19.890;2022-12-18T15:12:20;88.27;;;27.87;;
19691;SDS011;42748;50.016;19.890;2022-12-18T15:14:53;80.97;;;24.00;;
19691;SDS011;42748;50.016;19.890;2022-12-18T15:17:21;84.73;;;26.63;;
19691;SDS011;42748;50.016;19.890;2022-12-18T15:19:53;72.30;;;22.87;;
19691;SDS011;42748;50.016;19.890;2022-12-18T15:22:27;84.57;;;26.37;;
19691;SDS011;42748;50.016;19.890;2022-12-18T15:24:57;84.73;;;26.97;;
19691;SDS011;42748;50.016;19.890;2022-12-18T15:27:35;85.00;;;27.47;;
19691;SDS011;42748;50.016;19.890;2022-12-18T15:32:34;68.63;;;22.87;;
19691;SDS011;42748;50.016;19.890;2022-12-18T15:35:20;89.00;;;26.23;;
19691;SDS011;42748;50.016;19.890;2022-12-18T15:37:49;79.47;;;26.80;;
19691;SDS011;42748;50.016;19.890;2022-12-18T15:40:18;86.07;;;26.53;;
19691;SDS011;42748;50.016;19.890;2022-12-18T15:42:47;92.50;;;26.90;;
19691;SDS011;42748;50.016;19.890;2022-12-18T15:45:35;77.57;;;26.37;;
19691;SDS011;42748;50.016;19.890;2022-12-18T15:48:08;89.87;;;28.00;;
19691;SDS011;42748;50.016;19.890;2022-12-18T15:50:48;85.70;;;27.03;;
19691;SDS011;42748;50.016;19.890;2022-12-18T15:53:22;99.17;;;30.03;;
19691;SDS011;42748;50.016;19.890;2022-12-18T15:55:50;83.37;;;27.37;;
19691;SDS011;42748;50.016;19.890;2022-12-18T15:58:36;95.73;;;27.47;;
19691;SDS011;42748;50.016;19.890;2022-12-18T16:01:03;88.33;;;27.00;;
19691;SDS011;42748;50.016;19.890;2022-12-18T16:03:30;90.97;;;26.93;;
19691;SDS011;42748;50.016;19.890;2022-12-18T16:05:57;94.43;;;27.47;;
19691;SDS011;42748;50.016;19.890;2022-12-18T16:08:30;82.33;;;26.80;;
19691;SDS011;42748;50.016;19.890;2022-12-18T16:10:58;89.07;;;28.23;;
19691;SDS011;42748;50.016;19.890;2022-12-18T16:13:26;86.37;;;27.70;;
19691;SDS011;42748;50.016;19.890;2022-12-18T16:15:53;86.17;;;28.40;;
19691;SDS011;42748;50.016;19.890;2022-12-18T16:18:20;104.70;;;29.70;;
19691;SDS011;42748;50.016;19.890;2022-12-18T16:20:47;90.70;;;29.40;;
19691;SDS011;42748;50.016;19.890;2022-12-18T16:23:14;92.37;;;29.23;;
19691;SDS011;42748;50.016;19.890;2022-12-18T16:25:41;107.30;;;32.07;;
19691;SDS011;42748;50.016;19.890;2022-12-18T16:28:08;92.60;;;27.27;;
19691;SDS011;42748;50.016;19.890;2022-12-18T16:30:36;97.53;;;31.03;;
19691;SDS011;42748;50.016;19.890;2022-12-18T16:33:04;98.07;;;31.07;;
19691;SDS011;42748;50.016;19.890;2022-12-18T16:35:33;110.90;;;32.60;;
19691;SDS011;42748;50.016;19.890;2022-12-18T16:38:00;101.30;;;31.40;;
19691;SDS011;42748;50.016;19.890;2022-12-18T16:40:27;100.00;;;30.83;;
19691;SDS011;42748;50.016;19.890;2022-12-18T16:42:54;103.50;;;30.47;;
19691;SDS011;42748;50.016;19.890;2022-12-18T16:45:21;102.27;;;32.33;;
19691;SDS011;42748;50.016;19.890;2022-12-18T16:47:48;109.03;;;32.87;;